Murphy's Hourly Summary for Saturday, March 18, 2017
Hour Temp
(f)
RH
(%)
Solar Rad.
(MJ/m2)
Rainfall
(in)
Wind
(mph)
3/18/2017 12:00 AM 70 67 0 0 0.91
3/18/2017 1:00 AM 70 69 0 0 4.84
3/18/2017 2:00 AM 69 70 0 0 6.83
3/18/2017 3:00 AM 67 76 0 0 4.92
3/18/2017 4:00 AM 66 81 0 0 4.05
3/18/2017 5:00 AM 65 85 0 0 3.35
3/18/2017 6:00 AM 64 88 0 0 2.47
3/18/2017 7:00 AM 64 90 0 0 1.94
3/18/2017 8:00 AM 64 91 0.01 0 2.91
3/18/2017 9:00 AM 64 89 0.14 0 3.8
3/18/2017 10:00 AM 65 85 0.39 0 2.24
3/18/2017 11:00 AM 67 80 0.75 0 1.87
3/18/2017 12:00 PM 70 72 1.74 0 1.65
3/18/2017 1:00 PM 72 67 2.17 0 2.21
3/18/2017 2:00 PM 73 66 2.82 0 3.46
3/18/2017 3:00 PM 75 62 3.07 0 3.23
3/18/2017 4:00 PM 77 56 2.43 0 3.97
3/18/2017 5:00 PM 79 54 2.25 0 4.91
3/18/2017 6:00 PM 79 55 1.1 0 5.65
3/18/2017 7:00 PM 78 56 0.23 0 5.34
3/18/2017 8:00 PM 75 60 0.04 0 3.74
3/18/2017 9:00 PM 73 67 0 0 1.62
3/18/2017 10:00 PM 70 71 0 0 0.76
3/18/2017 11:00 PM 69 76 0 0 1.35
Data Summary 70 72 17.14 0.00 3.25